Time;durP1;ratioP1;P1;durP2;ratioP2;P2;SDS_P1;SDS_P2;PMS_P1;PMS_P2;Temp;Humidity;BMP_temperature;BMP_pressure;BME280_temperature;BME280_humidity;BME280_pressure;Samples;Min_cycle;Max_cycle;Signal;HPM_P1;HPM_P2
2024/01/04 00:02:02;;;;;;;1.33;1.13;;;8.70;99.90;;;;;;5009051;28;20420;-67
2024/01/04 00:04:28;;;;;;;3.03;1.00;;;8.70;99.90;;;;;;5001940;28;20478;-67
2024/01/04 00:06:56;;;;;;;3.10;2.03;;;8.60;99.90;;;;;;5006534;28;20489;-69
2024/01/04 00:09:24;;;;;;;3.13;1.63;;;8.70;99.90;;;;;;5006544;28;21325;-68
2024/01/04 00:11:51;;;;;;;4.20;1.37;;;8.80;99.90;;;;;;5007482;28;20465;-68
2024/01/04 00:14:17;;;;;;;6.83;2.17;;;8.80;99.90;;;;;;5006134;28;21034;-68
2024/01/04 00:16:44;;;;;;;3.07;1.80;;;8.70;99.90;;;;;;5005737;28;20446;-67
2024/01/04 00:19:11;;;;;;;10.13;1.80;;;8.60;99.90;;;;;;5006428;28;20468;-67
2024/01/04 00:21:37;;;;;;;2.80;1.53;;;8.70;99.90;;;;;;5005649;28;20470;-67
2024/01/04 00:24:05;;;;;;;7.33;1.57;;;8.70;99.90;;;;;;5003716;28;20484;-67
2024/01/04 00:26:33;;;;;;;4.53;1.70;;;8.70;99.90;;;;;;5003671;28;20512;-68
2024/01/04 00:29:00;;;;;;;1.67;1.33;;;8.70;99.90;;;;;;5009648;28;20449;-67
2024/01/04 00:31:27;;;;;;;1.40;1.23;;;8.70;99.90;;;;;;5000590;28;20496;-68
2024/01/04 00:33:53;;;;;;;1.93;1.63;;;8.60;99.90;;;;;;5008474;28;20488;-69
2024/01/04 00:36:20;;;;;;;2.23;1.73;;;8.70;99.90;;;;;;5008135;28;20536;-68
2024/01/04 00:38:47;;;;;;;3.10;1.43;;;8.60;99.90;;;;;;5008354;28;20449;-68
2024/01/04 00:41:16;;;;;;;2.50;1.37;;;8.60;99.90;;;;;;5005581;28;20477;-68
2024/01/04 00:43:44;;;;;;;2.53;2.33;;;8.60;99.90;;;;;;5002910;28;20489;-67
2024/01/04 00:46:11;;;;;;;2.07;1.33;;;8.60;99.90;;;;;;5010645;28;20459;-67
2024/01/04 00:48:38;;;;;;;1.37;1.27;;;8.60;99.90;;;;;;4998001;28;20428;-67
2024/01/04 00:51:05;;;;;;;5.73;1.70;;;8.70;99.90;;;;;;5000581;28;20480;-67
2024/01/04 00:53:31;;;;;;;1.67;1.57;;;8.60;99.90;;;;;;5000130;28;20560;-68
2024/01/04 00:55:58;;;;;;;2.00;1.70;;;8.70;99.90;;;;;;5005022;28;20435;-67
2024/01/04 00:58:25;;;;;;;1.73;1.63;;;8.80;99.90;;;;;;5003358;28;20798;-67
2024/01/04 01:00:53;;;;;;;2.00;1.73;;;8.80;99.90;;;;;;5001100;28;20453;-67
2024/01/04 01:03:20;;;;;;;2.67;1.97;;;8.70;99.90;;;;;;5008865;28;20462;-68
2024/01/04 01:05:46;;;;;;;2.23;1.60;;;8.70;99.90;;;;;;5001730;28;20468;-67
2024/01/04 01:08:13;;;;;;;2.60;2.30;;;8.80;99.90;;;;;;5007124;28;20457;-67
2024/01/04 01:10:40;;;;;;;2.23;1.60;;;8.70;99.90;;;;;;4998766;28;20435;-67
2024/01/04 01:13:07;;;;;;;2.40;2.17;;;8.70;99.90;;;;;;5002414;28;20935;-68
2024/01/04 01:15:33;;;;;;;2.43;1.80;;;8.60;99.90;;;;;;5002520;28;20469;-68
2024/01/04 01:18:01;;;;;;;2.70;2.00;;;8.60;99.90;;;;;;5003076;28;20561;-68
2024/01/04 01:20:28;;;;;;;4.57;2.73;;;8.70;99.90;;;;;;4999735;28;20464;-67
2024/01/04 01:22:55;;;;;;;2.53;1.83;;;8.70;99.90;;;;;;5005406;28;20427;-67
2024/01/04 01:25:22;;;;;;;2.73;2.53;;;8.70;99.90;;;;;;5000017;28;20456;-68
2024/01/04 01:27:49;;;;;;;3.00;2.80;;;8.70;99.90;;;;;;5002150;28;20463;-68
2024/01/04 01:30:16;;;;;;;2.97;2.07;;;8.70;99.90;;;;;;4999768;28;20452;-68
2024/01/04 01:32:42;;;;;;;4.07;1.80;;;8.80;99.90;;;;;;5003226;28;20466;-67
2024/01/04 01:35:10;;;;;;;2.87;1.97;;;8.80;99.90;;;;;;5001761;28;20549;-68
2024/01/04 01:37:37;;;;;;;2.83;2.50;;;8.80;99.90;;;;;;5003967;28;20910;-68
2024/01/04 01:40:06;;;;;;;5.57;1.87;;;8.80;99.90;;;;;;5002244;28;20497;-68
2024/01/04 01:42:33;;;;;;;3.97;1.83;;;8.90;99.90;;;;;;4998169;28;20471;-68
2024/01/04 01:45:00;;;;;;;2.30;2.00;;;8.90;99.90;;;;;;5004393;28;20531;-68
2024/01/04 01:47:27;;;;;;;4.33;1.67;;;8.80;99.90;;;;;;5002602;28;20851;-68
2024/01/04 01:49:55;;;;;;;6.87;2.53;;;8.80;99.90;;;;;;4993809;28;20442;-68
2024/01/04 01:52:23;;;;;;;2.13;1.77;;;8.70;99.90;;;;;;5004368;28;20468;-67
2024/01/04 01:54:50;;;;;;;2.07;1.47;;;8.80;99.90;;;;;;5006184;28;20474;-67
2024/01/04 01:57:18;;;;;;;7.30;1.83;;;8.80;99.90;;;;;;5002605;28;20432;-67
2024/01/04 01:59:45;;;;;;;3.20;1.90;;;8.80;99.90;;;;;;4997321;28;20478;-68
2024/01/04 02:02:12;;;;;;;1.70;1.33;;;8.80;99.90;;;;;;5007082;28;20486;-67
2024/01/04 02:04:41;;;;;;;3.50;2.00;;;8.90;99.90;;;;;;5005577;28;20468;-67
2024/01/04 02:07:08;;;;;;;10.83;2.53;;;8.80;99.90;;;;;;5003345;28;20477;-67
2024/01/04 02:09:36;;;;;;;3.93;2.07;;;8.80;99.90;;;;;;5005159;28;20443;-67
2024/01/04 02:12:05;;;;;;;2.40;2.20;;;8.80;99.90;;;;;;5000706;28;20469;-67
2024/01/04 02:14:32;;;;;;;3.50;3.20;;;8.90;99.90;;;;;;5004626;28;20473;-67
2024/01/04 02:16:58;;;;;;;2.70;2.13;;;8.90;99.90;;;;;;5001078;28;20469;-67
2024/01/04 02:19:27;;;;;;;3.13;2.77;;;8.90;99.90;;;;;;5001042;28;20904;-67
2024/01/04 02:21:54;;;;;;;2.30;2.10;;;8.90;99.90;;;;;;5003181;28;20461;-67
2024/01/04 02:24:22;;;;;;;2.50;1.87;;;8.80;99.90;;;;;;5007843;28;20530;-67
2024/01/04 02:26:49;;;;;;;3.60;2.30;;;8.70;99.90;;;;;;5002058;28;20885;-67
2024/01/04 02:29:15;;;;;;;3.37;1.97;;;8.60;99.90;;;;;;5003552;28;20474;-67
2024/01/04 02:31:44;;;;;;;2.07;1.57;;;8.50;99.90;;;;;;4989218;28;20474;-68
2024/01/04 02:34:11;;;;;;;1.80;1.30;;;8.50;99.90;;;;;;5001969;28;20473;-68
2024/01/04 02:36:38;;;;;;;3.00;1.53;;;8.40;99.90;;;;;;4999891;28;20465;-67
2024/01/04 02:39:05;;;;;;;11.93;1.53;;;8.40;99.90;;;;;;4997609;28;20444;-67
2024/01/04 02:41:33;;;;;;;1.20;1.00;;;8.40;99.90;;;;;;4997415;28;20482;-68
2024/01/04 02:44:00;;;;;;;1.83;1.57;;;8.50;99.90;;;;;;5003762;28;20484;-68
2024/01/04 02:46:27;;;;;;;0.90;0.70;;;8.60;99.90;;;;;;5002580;28;20955;-68
2024/01/04 02:48:53;;;;;;;3.03;1.27;;;8.50;99.90;;;;;;4998662;28;20438;-68
2024/01/04 02:51:20;;;;;;;2.40;1.20;;;8.50;99.90;;;;;;4991785;28;20439;-68
2024/01/04 02:53:47;;;;;;;5.87;1.70;;;8.50;99.90;;;;;;4998450;28;20469;-68
2024/01/04 02:56:13;;;;;;;4.93;1.20;;;8.60;99.90;;;;;;5001708;28;20468;-68
2024/01/04 02:58:45;;;;;;;1.90;1.53;;;8.60;99.90;;;;;;5002838;28;20530;-68
2024/01/04 03:01:11;;;;;;;2.43;1.10;;;8.60;99.90;;;;;;5001065;28;20511;-68
2024/01/04 03:03:38;;;;;;;3.50;1.67;;;8.50;99.90;;;;;;4998630;28;20436;-68
2024/01/04 03:06:05;;;;;;;1.50;1.07;;;8.50;99.90;;;;;;5000484;28;20817;-68
2024/01/04 03:08:32;;;;;;;1.30;1.10;;;8.40;99.90;;;;;;5002571;28;20489;-68
2024/01/04 03:10:58;;;;;;;1.57;1.47;;;8.40;99.90;;;;;;4988980;28;21151;-68
2024/01/04 03:13:25;;;;;;;1.30;1.20;;;8.40;99.90;;;;;;4996741;28;20477;-68
2024/01/04 03:15:53;;;;;;;1.80;1.30;;;8.50;99.90;;;;;;5001027;28;20465;-68
2024/01/04 03:18:20;;;;;;;2.10;1.43;;;8.50;99.90;;;;;;5003396;28;20431;-68
2024/01/04 03:20:47;;;;;;;1.70;1.40;;;8.50;99.90;;;;;;5007377;28;20472;-67
2024/01/04 03:23:13;;;;;;;2.70;1.80;;;8.50;99.90;;;;;;5004890;28;20850;-68
2024/01/04 03:25:40;;;;;;;1.77;1.00;;;8.60;99.90;;;;;;5008532;28;20468;-68
2024/01/04 03:28:07;;;;;;;2.27;0.93;;;8.60;99.90;;;;;;5006683;28;20484;-68
2024/01/04 03:30:34;;;;;;;2.13;1.57;;;8.60;99.90;;;;;;5006326;28;20520;-68
2024/01/04 03:33:02;;;;;;;2.57;2.07;;;8.70;99.90;;;;;;5005263;28;20473;-68
2024/01/04 03:35:29;;;;;;;1.27;1.17;;;8.70;99.90;;;;;;5005831;28;20893;-68
2024/01/04 03:37:56;;;;;;;1.20;0.93;;;8.70;99.90;;;;;;5006664;28;20446;-68
2024/01/04 03:40:22;;;;;;;5.53;2.47;;;8.60;99.90;;;;;;5007211;28;20544;-68
2024/01/04 03:42:49;;;;;;;3.40;1.90;;;8.70;99.90;;;;;;5005156;28;20436;-68
2024/01/04 03:45:16;;;;;;;2.60;1.87;;;8.70;99.90;;;;;;5006678;28;20608;-68
2024/01/04 03:47:43;;;;;;;4.30;2.47;;;8.60;99.90;;;;;;5007798;28;20536;-68
2024/01/04 03:50:11;;;;;;;2.07;1.87;;;8.70;99.90;;;;;;5005280;28;20844;-68
2024/01/04 03:52:38;;;;;;;3.77;2.60;;;8.80;99.90;;;;;;5009316;28;20803;-68
2024/01/04 03:55:05;;;;;;;2.63;1.40;;;8.70;99.90;;;;;;5012939;28;20473;-68
2024/01/04 03:57:32;;;;;;;4.50;2.57;;;8.80;99.90;;;;;;5183421;23;20686;-69
2024/01/04 03:59:59;;;;;;;3.97;2.93;;;8.70;99.90;;;;;;5006169;28;20461;-69
2024/01/04 04:02:25;;;;;;;5.13;2.40;;;8.70;99.90;;;;;;5006076;28;20436;-69
2024/01/04 04:04:52;;;;;;;5.33;3.13;;;8.70;99.90;;;;;;4996716;28;20967;-69
2024/01/04 04:07:20;;;;;;;2.63;2.43;;;8.70;99.90;;;;;;4988817;28;20478;-69
2024/01/04 04:09:47;;;;;;;2.53;2.23;;;8.60;99.90;;;;;;4987851;28;20461;-67
2024/01/04 04:12:13;;;;;;;3.13;1.50;;;8.70;99.90;;;;;;4986296;28;20455;-68
2024/01/04 04:14:42;;;;;;;3.03;1.93;;;8.60;99.90;;;;;;4986513;28;20591;-68
2024/01/04 04:17:09;;;;;;;1.83;1.60;;;8.60;99.90;;;;;;4984094;28;20758;-68
2024/01/04 04:19:35;;;;;;;1.77;1.67;;;8.70;99.90;;;;;;4984392;28;20447;-68
2024/01/04 04:22:02;;;;;;;5.00;1.60;;;8.50;99.90;;;;;;4996028;28;20804;-67
2024/01/04 04:24:31;;;;;;;2.73;1.87;;;8.50;99.90;;;;;;4992407;28;20489;-67
2024/01/04 04:26:58;;;;;;;6.37;2.07;;;8.50;99.90;;;;;;4990658;28;20473;-67
2024/01/04 04:29:24;;;;;;;2.70;1.50;;;8.50;99.90;;;;;;4992305;28;20469;-67
2024/01/04 04:31:51;;;;;;;2.60;1.67;;;8.50;99.90;;;;;;4993765;28;20471;-67
2024/01/04 04:34:18;;;;;;;1.80;1.20;;;8.50;99.90;;;;;;4984303;28;20441;-68
2024/01/04 04:36:44;;;;;;;1.60;1.10;;;8.50;99.90;;;;;;4997238;28;20431;-68
2024/01/04 04:39:11;;;;;;;4.17;1.53;;;8.50;99.90;;;;;;4987179;28;20462;-68
2024/01/04 04:41:40;;;;;;;1.53;1.33;;;8.40;99.90;;;;;;4988098;28;20422;-68
2024/01/04 04:44:07;;;;;;;2.13;1.30;;;8.40;99.90;;;;;;4987057;28;20457;-67
2024/01/04 04:46:34;;;;;;;1.20;1.00;;;8.40;99.90;;;;;;4993498;28;20447;-68
2024/01/04 04:49:00;;;;;;;1.37;1.07;;;8.40;99.90;;;;;;4994218;28;20482;-67
2024/01/04 04:51:27;;;;;;;0.90;0.73;;;8.40;99.90;;;;;;4989390;28;20853;-69
2024/01/04 04:53:54;;;;;;;1.43;0.80;;;8.40;99.90;;;;;;4978257;28;20596;-68
2024/01/04 04:56:21;;;;;;;0.90;0.77;;;8.40;99.90;;;;;;4993910;28;20530;-68
2024/01/04 04:58:49;;;;;;;1.40;0.90;;;8.40;99.90;;;;;;4985209;28;20469;-67
2024/01/04 05:01:16;;;;;;;1.50;1.17;;;8.40;99.90;;;;;;5000091;28;20445;-67
2024/01/04 05:03:42;;;;;;;1.20;0.87;;;8.50;99.90;;;;;;4990784;28;20984;-67
2024/01/04 05:06:10;;;;;;;1.00;0.80;;;8.40;99.90;;;;;;5002488;28;20438;-68
2024/01/04 05:08:37;;;;;;;4.03;1.00;;;8.40;99.90;;;;;;4991635;28;20584;-67
2024/01/04 05:11:04;;;;;;;1.20;0.90;;;8.30;99.90;;;;;;5003668;28;20412;-67
2024/01/04 05:13:31;;;;;;;12.30;1.47;;;8.30;99.90;;;;;;4992459;28;20558;-67
2024/01/04 05:15:59;;;;;;;1.10;0.80;;;8.40;99.90;;;;;;4999999;28;20445;-67
2024/01/04 05:18:26;;;;;;;1.20;0.80;;;8.40;99.90;;;;;;4991441;28;20465;-67
2024/01/04 05:20:53;;;;;;;1.00;0.70;;;8.30;99.90;;;;;;4992459;28;20428;-67
2024/01/04 05:23:19;;;;;;;1.00;0.90;;;8.40;99.90;;;;;;4993825;28;20435;-68
2024/01/04 05:25:46;;;;;;;2.03;0.87;;;8.30;99.90;;;;;;4986126;28;20955;-68
2024/01/04 05:28:13;;;;;;;1.70;1.60;;;8.40;99.90;;;;;;4989974;28;20481;-67
2024/01/04 05:30:40;;;;;;;1.57;0.97;;;8.40;99.90;;;;;;4993520;28;20469;-67
2024/01/04 05:33:08;;;;;;;4.20;1.10;;;8.40;99.90;;;;;;4984769;28;20490;-67
2024/01/04 05:35:34;;;;;;;1.83;1.70;;;8.30;99.90;;;;;;4996789;28;20464;-67
2024/01/04 05:38:01;;;;;;;2.70;0.80;;;8.30;99.90;;;;;;4988315;28;20460;-67
2024/01/04 05:40:28;;;;;;;1.00;0.90;;;8.40;99.90;;;;;;4989889;28;20928;-67
2024/01/04 05:42:57;;;;;;;1.10;0.80;;;8.40;99.90;;;;;;4987986;28;21084;-67
2024/01/04 05:45:24;;;;;;;2.50;1.10;;;8.40;99.90;;;;;;4987753;28;20474;-67
2024/01/04 05:47:50;;;;;;;1.17;0.90;;;8.30;99.90;;;;;;4987205;28;20477;-68
2024/01/04 05:50:19;;;;;;;2.27;1.43;;;8.30;99.90;;;;;;4990461;28;20417;-67
2024/01/04 05:52:45;;;;;;;1.00;0.90;;;8.20;99.90;;;;;;4981082;28;20853;-67
2024/01/04 05:55:12;;;;;;;0.90;0.80;;;8.20;99.90;;;;;;4995079;28;20472;-67
2024/01/04 05:57:39;;;;;;;0.93;0.83;;;8.20;99.90;;;;;;4989948;28;20454;-68
2024/01/04 06:00:07;;;;;;;1.00;0.80;;;8.20;99.90;;;;;;4986616;28;20821;-67
2024/01/04 06:02:34;;;;;;;1.20;1.03;;;8.20;99.90;;;;;;4989644;28;20462;-67
2024/01/04 06:05:00;;;;;;;1.20;0.90;;;8.20;99.90;;;;;;4999621;28;20468;-67
2024/01/04 06:07:28;;;;;;;0.90;0.70;;;8.20;99.90;;;;;;4990906;28;20461;-67
2024/01/04 06:09:55;;;;;;;1.00;0.80;;;8.20;99.90;;;;;;4996611;28;20480;-67
2024/01/04 06:12:22;;;;;;;3.23;0.93;;;8.10;99.90;;;;;;4986535;28;20935;-67
2024/01/04 06:14:49;;;;;;;1.37;1.13;;;8.10;99.90;;;;;;4995454;28;20516;-67
2024/01/04 06:17:16;;;;;;;1.80;1.23;;;8.10;99.90;;;;;;4996092;28;20490;-67
2024/01/04 06:19:43;;;;;;;1.27;1.17;;;8.10;99.90;;;;;;4983763;28;20915;-67
2024/01/04 06:22:10;;;;;;;1.10;0.90;;;8.10;99.90;;;;;;4994583;28;20465;-67
2024/01/04 06:24:38;;;;;;;1.40;1.23;;;8.10;99.90;;;;;;4988350;28;20493;-67
2024/01/04 06:27:05;;;;;;;1.20;1.07;;;8.10;99.90;;;;;;4988732;28;20453;-67
2024/01/04 06:29:32;;;;;;;1.10;0.90;;;8.10;99.90;;;;;;4996195;28;20484;-67
2024/01/04 06:31:59;;;;;;;1.00;0.80;;;8.10;99.90;;;;;;4991961;28;21199;-67
2024/01/04 06:34:25;;;;;;;1.80;0.97;;;8.10;99.90;;;;;;4986005;28;20465;-68
2024/01/04 06:36:52;;;;;;;2.37;1.83;;;8.10;99.90;;;;;;4993455;28;20437;-67
2024/01/04 06:39:19;;;;;;;1.53;1.00;;;8.10;99.90;;;;;;4983346;28;20449;-67
2024/01/04 06:41:47;;;;;;;1.20;1.10;;;8.10;99.90;;;;;;4998489;28;20453;-68
2024/01/04 06:44:14;;;;;;;1.30;1.00;;;8.00;99.90;;;;;;4996654;28;20492;-68
2024/01/04 06:46:41;;;;;;;3.83;1.43;;;8.00;99.90;;;;;;4988934;28;20465;-68
2024/01/04 06:49:08;;;;;;;1.40;1.20;;;8.10;99.90;;;;;;4996284;28;21209;-67
2024/01/04 06:51:34;;;;;;;1.97;1.67;;;8.10;99.90;;;;;;4981599;28;20462;-68
2024/01/04 06:54:02;;;;;;;1.57;1.47;;;8.20;99.90;;;;;;4991336;28;20474;-67
2024/01/04 06:56:29;;;;;;;2.03;1.67;;;8.20;99.90;;;;;;4996397;28;20439;-68
2024/01/04 06:58:57;;;;;;;1.47;1.20;;;8.20;99.90;;;;;;4994190;28;20953;-67
2024/01/04 07:01:23;;;;;;;1.17;1.03;;;8.20;99.90;;;;;;4990383;28;20458;-68
2024/01/04 07:03:51;;;;;;;2.03;1.20;;;8.20;99.90;;;;;;4994465;28;20485;-69
2024/01/04 07:06:17;;;;;;;2.00;1.50;;;8.20;99.90;;;;;;4997015;28;20778;-68
2024/01/04 07:08:44;;;;;;;1.30;1.13;;;8.20;99.90;;;;;;4993585;28;20480;-68
2024/01/04 07:11:11;;;;;;;0.97;0.87;;;8.20;99.90;;;;;;4999573;28;20830;-68
2024/01/04 07:13:38;;;;;;;1.10;1.00;;;8.20;99.90;;;;;;4988480;28;20496;-68
2024/01/04 07:16:06;;;;;;;1.10;1.00;;;8.30;99.90;;;;;;5001866;28;20953;-68
2024/01/04 07:18:33;;;;;;;2.57;1.50;;;8.30;99.90;;;;;;4992221;28;20464;-68
2024/01/04 07:21:00;;;;;;;1.63;1.33;;;8.30;99.90;;;;;;4997958;28;20420;-68
2024/01/04 07:23:27;;;;;;;1.30;1.00;;;8.30;99.90;;;;;;4984759;28;21013;-68
2024/01/04 07:25:55;;;;;;;1.10;1.00;;;8.40;99.90;;;;;;4995867;28;20453;-68
2024/01/04 07:28:21;;;;;;;1.73;1.47;;;8.40;99.90;;;;;;4995407;28;20533;-68
2024/01/04 07:30:48;;;;;;;2.03;1.40;;;8.30;99.90;;;;;;4997116;28;20465;-68
2024/01/04 07:33:16;;;;;;;2.93;2.43;;;8.10;99.90;;;;;;4983180;28;20803;-68
2024/01/04 07:35:43;;;;;;;2.13;1.93;;;8.10;99.90;;;;;;5000044;28;20941;-67
2024/01/04 07:38:10;;;;;;;3.10;1.10;;;8.00;99.90;;;;;;4994425;28;20449;-68
2024/01/04 07:40:37;;;;;;;2.63;2.37;;;8.10;99.90;;;;;;4995219;28;20478;-69
2024/01/04 07:43:04;;;;;;;2.50;2.30;;;8.00;99.90;;;;;;4994241;28;20432;-68
2024/01/04 07:45:31;;;;;;;1.00;0.80;;;8.10;99.90;;;;;;4997866;28;20445;-67
2024/01/04 07:47:58;;;;;;;1.97;1.53;;;8.00;99.90;;;;;;4987781;28;20467;-68
2024/01/04 07:50:26;;;;;;;0.90;0.80;;;7.90;99.90;;;;;;4994560;28;20805;-67
2024/01/04 07:52:53;;;;;;;2.07;1.10;;;7.90;99.90;;;;;;4990465;28;20564;-67
2024/01/04 07:55:20;;;;;;;4.13;1.10;;;8.00;99.90;;;;;;4993009;28;20432;-68
2024/01/04 07:57:47;;;;;;;0.90;0.73;;;8.10;99.90;;;;;;4987098;28;20487;-68
2024/01/04 08:00:15;;;;;;;2.87;2.67;;;8.10;99.90;;;;;;4997367;28;20438;-68
2024/01/04 08:02:41;;;;;;;0.90;0.77;;;8.10;99.90;;;;;;4991678;28;20458;-68
2024/01/04 08:05:09;;;;;;;1.10;1.00;;;8.10;99.90;;;;;;4998018;28;20457;-68
2024/01/04 08:07:39;;;;;;;1.53;1.17;;;8.00;99.90;;;;;;4990597;28;20550;-67
2024/01/04 08:10:08;;;;;;;1.83;1.33;;;8.10;99.90;;;;;;4996795;28;20856;-68
2024/01/04 08:12:35;;;;;;;1.40;0.90;;;8.10;99.90;;;;;;4990291;28;20505;-67
2024/01/04 08:15:02;;;;;;;1.10;1.00;;;8.10;99.90;;;;;;4986587;28;20453;-68
2024/01/04 08:17:28;;;;;;;1.00;0.80;;;8.10;99.90;;;;;;4989486;28;20470;-68
2024/01/04 08:19:55;;;;;;;2.33;1.40;;;8.00;99.90;;;;;;4988858;28;20465;-68
2024/01/04 08:22:22;;;;;;;1.20;1.03;;;8.00;99.90;;;;;;4990762;28;20991;-68
2024/01/04 08:24:50;;;;;;;1.00;0.83;;;8.10;99.90;;;;;;4992341;28;20469;-68
2024/01/04 08:27:19;;;;;;;1.93;1.10;;;8.20;99.90;;;;;;4991991;28;20950;-68
2024/01/04 08:29:48;;;;;;;1.17;1.07;;;8.10;99.90;;;;;;4989347;28;20488;-68
2024/01/04 08:32:15;;;;;;;1.83;1.33;;;8.10;99.90;;;;;;4992403;28;20892;-68
2024/01/04 08:34:41;;;;;;;1.63;1.37;;;8.10;99.90;;;;;;4994423;28;21006;-68
2024/01/04 08:37:07;;;;;;;1.40;1.30;;;8.20;99.90;;;;;;4986570;28;20489;-68
2024/01/04 08:39:34;;;;;;;6.20;1.43;;;8.20;99.90;;;;;;4991868;28;20291;-67
2024/01/04 08:42:04;;;;;;;1.43;1.00;;;8.30;99.90;;;;;;4991871;28;21203;-67
2024/01/04 08:44:30;;;;;;;1.97;1.27;;;8.40;99.90;;;;;;4993854;28;20474;-68
2024/01/04 08:46:57;;;;;;;1.40;1.10;;;8.40;99.90;;;;;;4996254;28;20520;-69
2024/01/04 08:49:24;;;;;;;9.00;1.53;;;8.40;99.90;;;;;;4996358;28;20455;-68
2024/01/04 08:51:51;;;;;;;2.10;0.90;;;8.40;99.90;;;;;;4989530;28;20441;-69
2024/01/04 08:54:17;;;;;;;2.10;1.30;;;8.40;99.90;;;;;;4995967;28;20493;-67
2024/01/04 08:56:44;;;;;;;3.53;1.40;;;8.40;99.90;;;;;;4992620;28;20846;-68
2024/01/04 08:59:12;;;;;;;2.37;1.13;;;8.40;99.90;;;;;;4997622;28;20439;-68
2024/01/04 09:01:39;;;;;;;2.07;1.20;;;8.40;99.90;;;;;;4989705;28;21060;-68
2024/01/04 09:04:05;;;;;;;1.70;1.17;;;8.30;99.90;;;;;;4993071;28;20497;-67
2024/01/04 09:06:33;;;;;;;1.87;1.40;;;8.30;99.90;;;;;;4996278;28;20442;-68
2024/01/04 09:09:04;;;;;;;1.90;1.20;;;8.30;99.90;;;;;;4990794;28;20483;-68
2024/01/04 09:11:33;;;;;;;1.40;1.30;;;8.30;99.90;;;;;;4990413;28;20458;-68
2024/01/04 09:14:00;;;;;;;2.17;2.07;;;8.40;99.90;;;;;;4990331;28;20493;-68
2024/01/04 09:16:28;;;;;;;2.93;1.70;;;8.40;99.90;;;;;;4996282;28;20503;-67
2024/01/04 09:18:55;;;;;;;1.93;1.20;;;8.30;99.90;;;;;;4992658;28;20461;-68
2024/01/04 09:21:22;;;;;;;1.80;1.63;;;8.20;99.90;;;;;;5001965;28;20468;-67
2024/01/04 09:23:50;;;;;;;5.80;1.50;;;8.20;99.90;;;;;;4988810;28;20482;-68
2024/01/04 09:26:17;;;;;;;1.40;1.17;;;8.20;99.90;;;;;;4990650;28;20456;-67
2024/01/04 09:28:44;;;;;;;2.27;1.30;;;8.30;99.90;;;;;;4990177;28;20901;-67
2024/01/04 09:31:10;;;;;;;1.23;1.00;;;8.30;99.90;;;;;;4992273;28;20450;-66
2024/01/04 09:33:40;;;;;;;1.07;0.97;;;8.40;99.90;;;;;;4984962;28;20472;-67
2024/01/04 09:36:07;;;;;;;1.27;1.17;;;8.30;99.90;;;;;;4993452;28;20418;-67
2024/01/04 09:38:34;;;;;;;1.07;0.90;;;8.30;99.90;;;;;;4988184;28;20855;-68
2024/01/04 09:41:09;;;;;;;1.30;0.90;;;8.20;99.90;;;;;;4991387;28;20459;-68
2024/01/04 09:43:37;;;;;;;1.37;1.10;;;8.20;99.90;;;;;;4988703;28;20448;-67
2024/01/04 09:46:07;;;;;;;8.90;1.73;;;8.20;99.90;;;;;;4993236;28;20557;-67
2024/01/04 09:48:38;;;;;;;1.87;1.07;;;8.10;99.90;;;;;;4983078;28;20494;-68
2024/01/04 09:51:06;;;;;;;1.63;1.27;;;8.20;99.90;;;;;;4991397;28;20429;-68
2024/01/04 09:53:34;;;;;;;1.77;1.30;;;8.30;99.90;;;;;;4988666;28;20543;-68
2024/01/04 09:56:02;;;;;;;7.33;1.47;;;8.40;99.90;;;;;;4987791;28;20470;-68
2024/01/04 09:58:30;;;;;;;1.90;1.80;;;8.30;99.90;;;;;;4981667;28;20946;-68
2024/01/04 10:01:00;;;;;;;2.17;1.93;;;8.30;99.90;;;;;;4999647;28;20445;-67
2024/01/04 10:03:27;;;;;;;1.47;1.30;;;8.40;99.90;;;;;;4992295;28;20857;-67
2024/01/04 10:05:56;;;;;;;2.07;1.83;;;8.40;99.90;;;;;;4992330;28;20424;-68
2024/01/04 10:08:34;;;;;;;2.27;1.53;;;8.50;99.90;;;;;;4982738;28;20497;-68
2024/01/04 10:11:10;;;;;;;1.90;1.27;;;8.40;99.90;;;;;;4984027;28;20447;-69
2024/01/04 10:13:38;;;;;;;3.00;1.90;;;8.20;99.90;;;;;;4982962;28;20506;-68
2024/01/04 10:16:06;;;;;;;1.87;1.77;;;8.20;99.90;;;;;;4994684;28;20424;-69
2024/01/04 10:18:34;;;;;;;2.57;2.23;;;8.30;99.90;;;;;;4986135;28;20957;-68
2024/01/04 10:21:01;;;;;;;2.40;1.90;;;8.40;99.90;;;;;;4987426;28;20450;-68
2024/01/04 10:23:29;;;;;;;2.87;1.87;;;8.30;99.90;;;;;;4985040;28;20465;-69
2024/01/04 10:26:08;;;;;;;2.97;1.73;;;8.40;99.90;;;;;;4987789;28;20463;-68
2024/01/04 10:28:38;;;;;;;2.40;1.50;;;8.40;99.90;;;;;;4989775;28;20455;-68
2024/01/04 10:31:06;;;;;;;2.07;1.40;;;8.40;99.90;;;;;;5003231;28;20441;-68
2024/01/04 10:33:33;;;;;;;1.90;1.40;;;8.50;99.90;;;;;;4989778;28;20599;-68
2024/01/04 10:36:08;;;;;;;3.20;1.87;;;8.60;99.90;;;;;;4997572;28;20435;-68
2024/01/04 10:38:37;;;;;;;1.90;1.50;;;8.60;99.90;;;;;;4993345;28;20833;-68
2024/01/04 10:41:05;;;;;;;1.47;1.37;;;8.70;99.90;;;;;;4997223;28;20428;-69
2024/01/04 10:43:32;;;;;;;3.30;1.90;;;8.60;99.90;;;;;;4990826;28;20895;-68
2024/01/04 10:46:03;;;;;;;1.40;1.30;;;8.60;99.90;;;;;;5005251;28;20830;-68
2024/01/04 10:48:30;;;;;;;2.10;1.43;;;8.80;99.90;;;;;;4994440;28;20510;-67
2024/01/04 10:51:02;;;;;;;4.80;2.00;;;8.80;99.90;;;;;;4994979;28;20490;-69
2024/01/04 10:53:35;;;;;;;2.00;1.90;;;8.90;99.90;;;;;;4986399;28;20470;-69
2024/01/04 10:56:05;;;;;;;1.67;0.97;;;9.00;99.90;;;;;;4997103;28;20796;-68
2024/01/04 10:58:33;;;;;;;2.00;1.50;;;9.00;99.90;;;;;;4992185;28;20961;-68
2024/01/04 11:01:01;;;;;;;3.47;2.17;;;9.00;99.90;;;;;;4994127;28;20853;-68
2024/01/04 11:03:30;;;;;;;2.50;1.80;;;9.00;99.90;;;;;;4989100;28;20440;-67
2024/01/04 11:05:59;;;;;;;4.27;2.03;;;9.00;99.90;;;;;;4997259;28;20938;-68
2024/01/04 11:08:27;;;;;;;2.57;2.20;;;8.90;99.90;;;;;;4996231;28;20581;-68
2024/01/04 11:10:54;;;;;;;7.70;1.97;;;8.90;99.90;;;;;;5000786;28;20978;-68
2024/01/04 11:13:22;;;;;;;3.90;3.60;;;9.00;99.90;;;;;;4992847;28;20817;-68
2024/01/04 11:15:52;;;;;;;2.50;2.17;;;9.00;99.90;;;;;;4998457;28;20864;-69
2024/01/04 11:18:34;;;;;;;3.73;2.43;;;9.10;99.90;;;;;;4994043;28;20489;-69
2024/01/04 11:21:20;;;;;;;3.57;2.20;;;9.00;99.90;;;;;;5001034;28;20465;-69
2024/01/04 11:24:01;;;;;;;5.50;2.73;;;9.00;99.90;;;;;;4995143;28;20469;-68
2024/01/04 11:26:29;;;;;;;3.50;2.03;;;9.10;99.90;;;;;;4995814;28;20458;-68
2024/01/04 11:28:58;;;;;;;4.00;2.90;;;9.00;99.90;;;;;;4987295;28;21320;-68
2024/01/04 11:31:25;;;;;;;2.80;1.70;;;9.10;99.90;;;;;;5001123;28;20895;-68
2024/01/04 11:33:52;;;;;;;2.73;2.40;;;9.10;99.90;;;;;;4985368;28;20998;-68
2024/01/04 11:36:20;;;;;;;2.50;2.13;;;9.20;99.90;;;;;;4999954;28;20446;-68
2024/01/04 11:38:48;;;;;;;2.90;2.03;;;9.20;99.90;;;;;;4983740;28;20463;-68
2024/01/04 11:41:15;;;;;;;3.27;2.97;;;9.10;99.90;;;;;;4981852;28;20474;-68
2024/01/04 11:43:43;;;;;;;4.43;2.03;;;9.00;99.90;;;;;;4992618;28;20521;-68
2024/01/04 11:46:21;;;;;;;1.93;1.73;;;9.10;99.90;;;;;;4996019;28;20544;-68
2024/01/04 11:48:53;;;;;;;1.73;1.63;;;9.10;99.90;;;;;;4986874;28;20523;-68
2024/01/04 11:51:33;;;;;;;3.30;2.10;;;9.20;99.90;;;;;;4998987;28;20527;-68
2024/01/04 11:54:00;;;;;;;1.60;1.07;;;9.30;99.90;;;;;;4992332;28;20964;-68
2024/01/04 11:56:27;;;;;;;2.23;1.47;;;9.10;99.90;;;;;;4998231;28;20469;-69
2024/01/04 11:58:54;;;;;;;1.17;0.97;;;9.10;99.90;;;;;;4987340;28;20464;-68
2024/01/04 12:01:25;;;;;;;5.10;2.00;;;9.00;99.90;;;;;;4993724;28;20478;-68
2024/01/04 12:03:52;;;;;;;3.33;1.87;;;9.00;99.90;;;;;;4988943;28;20469;-68
2024/01/04 12:06:23;;;;;;;3.97;1.97;;;9.00;99.90;;;;;;4998383;28;20514;-68
2024/01/04 12:08:51;;;;;;;4.87;2.30;;;9.10;99.90;;;;;;4988068;28;20447;-68
2024/01/04 12:11:19;;;;;;;2.90;2.33;;;9.30;99.90;;;;;;4995453;28;21118;-68
2024/01/04 12:13:47;;;;;;;6.10;2.40;;;9.40;99.90;;;;;;4991633;28;20593;-68
2024/01/04 12:16:14;;;;;;;3.50;2.17;;;9.60;99.90;;;;;;4989834;28;20877;-68
2024/01/04 12:18:42;;;;;;;8.30;4.67;;;9.60;99.90;;;;;;4991380;28;20574;-69
2024/01/04 12:21:10;;;;;;;4.10;2.27;;;9.60;99.90;;;;;;4992113;28;20438;-69
2024/01/04 12:23:38;;;;;;;4.80;3.27;;;9.80;99.90;;;;;;4986302;28;20445;-68
2024/01/04 12:26:05;;;;;;;6.57;3.30;;;9.80;99.90;;;;;;4992430;28;20916;-67
2024/01/04 12:28:33;;;;;;;6.43;4.90;;;9.80;99.90;;;;;;4981328;28;20588;-68
2024/01/04 12:31:00;;;;;;;7.37;6.00;;;9.90;99.90;;;;;;4988782;28;20495;-67
2024/01/04 12:33:30;;;;;;;17.70;3.97;;;9.70;99.90;;;;;;4991155;28;20430;-67
2024/01/04 12:35:59;;;;;;;3.97;2.80;;;9.80;99.90;;;;;;4980527;28;20520;-67
2024/01/04 12:38:26;;;;;;;7.50;5.00;;;9.90;99.90;;;;;;4973138;28;20543;-68
2024/01/04 12:40:53;;;;;;;5.77;3.77;;;10.00;99.90;;;;;;4988632;28;20488;-67
2024/01/04 12:43:22;;;;;;;7.40;5.73;;;9.80;99.90;;;;;;4986658;28;20439;-68
2024/01/04 12:46:02;;;;;;;5.40;2.73;;;9.90;99.90;;;;;;4989886;28;20477;-68
2024/01/04 12:48:28;;;;;;;4.20;3.20;;;9.90;99.90;;;;;;4985342;28;21161;-67
2024/01/04 12:50:55;;;;;;;4.60;3.57;;;10.00;99.90;;;;;;4980597;28;20515;-67
2024/01/04 12:53:23;;;;;;;4.10;3.43;;;10.10;99.90;;;;;;4979893;28;20467;-67
2024/01/04 12:55:50;;;;;;;5.60;3.47;;;10.00;99.90;;;;;;4988021;28;20948;-67
2024/01/04 12:58:17;;;;;;;3.70;2.60;;;9.90;99.90;;;;;;4982731;28;20477;-67
2024/01/04 13:00:44;;;;;;;4.17;2.80;;;9.80;99.90;;;;;;4990499;28;20472;-67